sensor_id;sensor_type;location;lat;lon;timestamp;temperature;humidity
18694;DHT22;9477;51.414;10.362;2023-04-24T00:00:00;15.80;70.80
18694;DHT22;9477;51.414;10.362;2023-04-24T00:02:04;15.70;70.90
18694;DHT22;9477;51.414;10.362;2023-04-24T00:04:09;15.80;71.30
18694;DHT22;9477;51.414;10.362;2023-04-24T00:06:12;15.70;71.40
18694;DHT22;9477;51.414;10.362;2023-04-24T00:08:15;15.60;71.70
18694;DHT22;9477;51.414;10.362;2023-04-24T00:10:18;15.50;72.10
18694;DHT22;9477;51.414;10.362;2023-04-24T00:12:25;15.60;72.10
18694;DHT22;9477;51.414;10.362;2023-04-24T00:14:28;15.60;72.20
18694;DHT22;9477;51.414;10.362;2023-04-24T00:16:32;15.60;72.10
18694;DHT22;9477;51.414;10.362;2023-04-24T00:18:35;15.60;71.90
18694;DHT22;9477;51.414;10.362;2023-04-24T00:20:38;15.60;72.10
18694;DHT22;9477;51.414;10.362;2023-04-24T00:22:41;15.60;72.00
18694;DHT22;9477;51.414;10.362;2023-04-24T00:24:44;15.60;72.00
18694;DHT22;9477;51.414;10.362;2023-04-24T00:26:47;15.70;72.10
18694;DHT22;9477;51.414;10.362;2023-04-24T00:28:50;15.70;72.10
18694;DHT22;9477;51.414;10.362;2023-04-24T00:30:53;15.80;72.00
18694;DHT22;9477;51.414;10.362;2023-04-24T00:32:58;15.80;72.00
18694;DHT22;9477;51.414;10.362;2023-04-24T00:35:02;15.70;72.00
18694;DHT22;9477;51.414;10.362;2023-04-24T00:37:04;15.70;72.00
18694;DHT22;9477;51.414;10.362;2023-04-24T00:39:07;15.60;71.90
18694;DHT22;9477;51.414;10.362;2023-04-24T00:41:11;15.60;71.90
18694;DHT22;9477;51.414;10.362;2023-04-24T00:43:14;15.50;71.80
18694;DHT22;9477;51.414;10.362;2023-04-24T00:45:19;15.50;71.90
18694;DHT22;9477;51.414;10.362;2023-04-24T00:47:22;15.50;71.90
18694;DHT22;9477;51.414;10.362;2023-04-24T00:49:27;15.50;72.00
18694;DHT22;9477;51.414;10.362;2023-04-24T00:51:30;15.40;71.80
18694;DHT22;9477;51.414;10.362;2023-04-24T00:53:34;15.40;71.80
18694;DHT22;9477;51.414;10.362;2023-04-24T00:55:37;15.40;71.90
18694;DHT22;9477;51.414;10.362;2023-04-24T00:57:39;15.40;71.70
18694;DHT22;9477;51.414;10.362;2023-04-24T00:59:43;15.40;71.90
18694;DHT22;9477;51.414;10.362;2023-04-24T01:01:46;15.40;71.80
18694;DHT22;9477;51.414;10.362;2023-04-24T01:03:52;15.40;71.70
18694;DHT22;9477;51.414;10.362;2023-04-24T01:05:58;15.40;71.80
18694;DHT22;9477;51.414;10.362;2023-04-24T01:08:01;15.40;71.70
18694;DHT22;9477;51.414;10.362;2023-04-24T01:10:06;15.40;71.70
18694;DHT22;9477;51.414;10.362;2023-04-24T01:12:23;15.40;71.80
18694;DHT22;9477;51.414;10.362;2023-04-24T01:14:26;15.40;71.70
18694;DHT22;9477;51.414;10.362;2023-04-24T01:16:29;15.30;71.90
18694;DHT22;9477;51.414;10.362;2023-04-24T01:18:32;15.20;71.90
18694;DHT22;9477;51.414;10.362;2023-04-24T01:20:35;15.20;71.90
18694;DHT22;9477;51.414;10.362;2023-04-24T01:22:43;15.30;72.20
18694;DHT22;9477;51.414;10.362;2023-04-24T01:24:46;15.30;72.20
18694;DHT22;9477;51.414;10.362;2023-04-24T01:26:49;15.20;72.10
18694;DHT22;9477;51.414;10.362;2023-04-24T01:28:52;15.20;72.30
18694;DHT22;9477;51.414;10.362;2023-04-24T01:30:55;15.20;72.40
18694;DHT22;9477;51.414;10.362;2023-04-24T01:32:59;15.20;72.50
18694;DHT22;9477;51.414;10.362;2023-04-24T01:35:02;15.10;72.60
18694;DHT22;9477;51.414;10.362;2023-04-24T01:37:05;15.10;72.60
18694;DHT22;9477;51.414;10.362;2023-04-24T01:39:09;15.10;72.60
18694;DHT22;9477;51.414;10.362;2023-04-24T01:41:13;15.10;72.60
18694;DHT22;9477;51.414;10.362;2023-04-24T01:43:16;15.10;72.60
18694;DHT22;9477;51.414;10.362;2023-04-24T01:45:18;15.10;72.70
18694;DHT22;9477;51.414;10.362;2023-04-24T01:47:21;15.10;72.90
18694;DHT22;9477;51.414;10.362;2023-04-24T01:49:24;15.10;72.90
18694;DHT22;9477;51.414;10.362;2023-04-24T01:51:27;15.10;72.80
18694;DHT22;9477;51.414;10.362;2023-04-24T01:53:30;15.00;72.70
18694;DHT22;9477;51.414;10.362;2023-04-24T01:55:34;15.00;72.80
18694;DHT22;9477;51.414;10.362;2023-04-24T01:57:38;15.00;72.90
18694;DHT22;9477;51.414;10.362;2023-04-24T01:59:41;14.90;72.90
18694;DHT22;9477;51.414;10.362;2023-04-24T02:01:44;14.90;72.90
18694;DHT22;9477;51.414;10.362;2023-04-24T02:03:47;14.90;73.10
18694;DHT22;9477;51.414;10.362;2023-04-24T02:05:50;14.80;73.00
18694;DHT22;9477;51.414;10.362;2023-04-24T02:07:53;14.80;74.10
18694;DHT22;9477;51.414;10.362;2023-04-24T02:09:56;14.70;73.40
18694;DHT22;9477;51.414;10.362;2023-04-24T02:12:00;14.80;73.60
18694;DHT22;9477;51.414;10.362;2023-04-24T02:14:03;14.70;73.60
18694;DHT22;9477;51.414;10.362;2023-04-24T02:16:06;14.70;73.80
18694;DHT22;9477;51.414;10.362;2023-04-24T02:18:10;14.70;74.10
18694;DHT22;9477;51.414;10.362;2023-04-24T02:20:14;14.70;74.30
18694;DHT22;9477;51.414;10.362;2023-04-24T02:22:21;14.70;74.30
18694;DHT22;9477;51.414;10.362;2023-04-24T02:24:24;14.70;74.20
18694;DHT22;9477;51.414;10.362;2023-04-24T02:26:27;14.70;74.30
18694;DHT22;9477;51.414;10.362;2023-04-24T02:28:31;14.70;74.30
18694;DHT22;9477;51.414;10.362;2023-04-24T02:30:34;14.70;74.20
18694;DHT22;9477;51.414;10.362;2023-04-24T02:32:37;14.70;74.30
18694;DHT22;9477;51.414;10.362;2023-04-24T02:34:40;14.70;74.30
18694;DHT22;9477;51.414;10.362;2023-04-24T02:36:43;14.70;74.30
18694;DHT22;9477;51.414;10.362;2023-04-24T02:38:46;14.60;74.20
18694;DHT22;9477;51.414;10.362;2023-04-24T02:40:49;14.60;74.20
18694;DHT22;9477;51.414;10.362;2023-04-24T02:42:52;14.60;74.20
18694;DHT22;9477;51.414;10.362;2023-04-24T02:44:56;14.60;74.30
18694;DHT22;9477;51.414;10.362;2023-04-24T02:47:00;14.60;74.30
18694;DHT22;9477;51.414;10.362;2023-04-24T02:49:02;14.50;74.50
18694;DHT22;9477;51.414;10.362;2023-04-24T02:51:05;14.50;74.50
18694;DHT22;9477;51.414;10.362;2023-04-24T02:53:09;14.60;74.70
18694;DHT22;9477;51.414;10.362;2023-04-24T02:55:12;14.60;74.50
18694;DHT22;9477;51.414;10.362;2023-04-24T02:57:15;14.70;74.70
18694;DHT22;9477;51.414;10.362;2023-04-24T02:59:18;14.60;75.30
18694;DHT22;9477;51.414;10.362;2023-04-24T03:01:22;14.70;74.70
18694;DHT22;9477;51.414;10.362;2023-04-24T03:03:25;14.60;74.60
18694;DHT22;9477;51.414;10.362;2023-04-24T03:05:28;14.60;74.40
18694;DHT22;9477;51.414;10.362;2023-04-24T03:07:32;14.60;74.60
18694;DHT22;9477;51.414;10.362;2023-04-24T03:09:35;14.60;74.70
18694;DHT22;9477;51.414;10.362;2023-04-24T03:11:37;14.60;74.90
18694;DHT22;9477;51.414;10.362;2023-04-24T03:13:41;14.50;75.00
18694;DHT22;9477;51.414;10.362;2023-04-24T03:15:44;14.50;75.30
18694;DHT22;9477;51.414;10.362;2023-04-24T03:17:49;14.50;75.60
18694;DHT22;9477;51.414;10.362;2023-04-24T03:19:54;14.50;75.50
18694;DHT22;9477;51.414;10.362;2023-04-24T03:21:57;14.60;75.60
18694;DHT22;9477;51.414;10.362;2023-04-24T03:24:00;14.60;75.80
18694;DHT22;9477;51.414;10.362;2023-04-24T03:26:04;14.70;75.70
18694;DHT22;9477;51.414;10.362;2023-04-24T03:28:07;14.70;75.60
18694;DHT22;9477;51.414;10.362;2023-04-24T03:30:10;14.70;75.50
18694;DHT22;9477;51.414;10.362;2023-04-24T03:32:12;14.70;75.50
18694;DHT22;9477;51.414;10.362;2023-04-24T03:34:16;14.70;75.70
18694;DHT22;9477;51.414;10.362;2023-04-24T03:36:19;14.80;75.80
18694;DHT22;9477;51.414;10.362;2023-04-24T03:38:22;14.80;75.70
18694;DHT22;9477;51.414;10.362;2023-04-24T03:40:25;14.90;75.80
18694;DHT22;9477;51.414;10.362;2023-04-24T03:42:28;14.90;75.70
18694;DHT22;9477;51.414;10.362;2023-04-24T03:44:30;14.90;75.70
18694;DHT22;9477;51.414;10.362;2023-04-24T03:46:33;14.80;75.80
18694;DHT22;9477;51.414;10.362;2023-04-24T03:48:37;14.80;75.90
18694;DHT22;9477;51.414;10.362;2023-04-24T03:50:41;14.80;75.90
18694;DHT22;9477;51.414;10.362;2023-04-24T03:52:44;14.80;76.10
18694;DHT22;9477;51.414;10.362;2023-04-24T03:54:47;14.80;76.10
18694;DHT22;9477;51.414;10.362;2023-04-24T03:56:50;14.80;76.20
18694;DHT22;9477;51.414;10.362;2023-04-24T03:58:53;14.90;76.20
18694;DHT22;9477;51.414;10.362;2023-04-24T04:00:58;14.90;76.30
18694;DHT22;9477;51.414;10.362;2023-04-24T04:03:01;14.80;76.40
18694;DHT22;9477;51.414;10.362;2023-04-24T04:05:05;14.90;76.40
18694;DHT22;9477;51.414;10.362;2023-04-24T04:07:09;14.90;76.50
18694;DHT22;9477;51.414;10.362;2023-04-24T04:09:12;14.90;76.60
18694;DHT22;9477;51.414;10.362;2023-04-24T04:11:15;15.00;76.70
18694;DHT22;9477;51.414;10.362;2023-04-24T04:13:18;15.00;76.80
18694;DHT22;9477;51.414;10.362;2023-04-24T04:15:21;15.00;76.80
18694;DHT22;9477;51.414;10.362;2023-04-24T04:17:24;15.10;76.80
18694;DHT22;9477;51.414;10.362;2023-04-24T04:19:27;15.20;76.80
18694;DHT22;9477;51.414;10.362;2023-04-24T04:21:30;15.20;76.70
18694;DHT22;9477;51.414;10.362;2023-04-24T04:23:35;15.20;76.70
18694;DHT22;9477;51.414;10.362;2023-04-24T04:25:38;15.30;76.70
18694;DHT22;9477;51.414;10.362;2023-04-24T04:27:40;15.20;76.60
18694;DHT22;9477;51.414;10.362;2023-04-24T04:29:43;15.30;76.80
18694;DHT22;9477;51.414;10.362;2023-04-24T04:31:46;15.30;76.70
18694;DHT22;9477;51.414;10.362;2023-04-24T04:33:49;15.40;76.70
18694;DHT22;9477;51.414;10.362;2023-04-24T04:35:52;15.40;76.70
18694;DHT22;9477;51.414;10.362;2023-04-24T04:37:55;15.40;76.60
18694;DHT22;9477;51.414;10.362;2023-04-24T04:40:02;15.40;76.70
18694;DHT22;9477;51.414;10.362;2023-04-24T04:42:08;15.50;76.80
18694;DHT22;9477;51.414;10.362;2023-04-24T04:44:11;15.50;76.70
18694;DHT22;9477;51.414;10.362;2023-04-24T04:46:14;15.50;76.70
18694;DHT22;9477;51.414;10.362;2023-04-24T04:48:17;15.50;76.60
18694;DHT22;9477;51.414;10.362;2023-04-24T04:50:21;15.50;76.70
18694;DHT22;9477;51.414;10.362;2023-04-24T04:52:24;15.60;76.90
18694;DHT22;9477;51.414;10.362;2023-04-24T04:54:28;15.50;76.70
18694;DHT22;9477;51.414;10.362;2023-04-24T04:56:32;15.50;76.90
18694;DHT22;9477;51.414;10.362;2023-04-24T04:58:35;15.50;76.90
18694;DHT22;9477;51.414;10.362;2023-04-24T05:00:38;15.50;76.90
18694;DHT22;9477;51.414;10.362;2023-04-24T05:02:41;15.60;77.10
18694;DHT22;9477;51.414;10.362;2023-04-24T05:04:44;15.60;76.70
18694;DHT22;9477;51.414;10.362;2023-04-24T05:06:48;15.70;76.90
18694;DHT22;9477;51.414;10.362;2023-04-24T05:08:52;15.60;76.80
18694;DHT22;9477;51.414;10.362;2023-04-24T05:10:58;15.60;76.90
18694;DHT22;9477;51.414;10.362;2023-04-24T05:13:03;15.60;77.00
18694;DHT22;9477;51.414;10.362;2023-04-24T05:15:07;15.70;76.90
18694;DHT22;9477;51.414;10.362;2023-04-24T05:17:10;15.90;76.90
18694;DHT22;9477;51.414;10.362;2023-04-24T05:19:13;15.80;76.40
18694;DHT22;9477;51.414;10.362;2023-04-24T05:21:16;15.80;76.40
18694;DHT22;9477;51.414;10.362;2023-04-24T05:23:19;15.90;76.40
18694;DHT22;9477;51.414;10.362;2023-04-24T05:25:22;15.90;76.50
18694;DHT22;9477;51.414;10.362;2023-04-24T05:27:25;15.90;76.40
18694;DHT22;9477;51.414;10.362;2023-04-24T05:29:29;16.00;76.40
18694;DHT22;9477;51.414;10.362;2023-04-24T05:31:33;16.00;76.30
18694;DHT22;9477;51.414;10.362;2023-04-24T05:33:36;16.10;76.20
18694;DHT22;9477;51.414;10.362;2023-04-24T05:35:40;16.00;75.80
18694;DHT22;9477;51.414;10.362;2023-04-24T05:37:47;16.10;76.00
18694;DHT22;9477;51.414;10.362;2023-04-24T05:39:50;16.00;75.50
18694;DHT22;9477;51.414;10.362;2023-04-24T05:41:52;15.90;75.60
18694;DHT22;9477;51.414;10.362;2023-04-24T05:43:55;15.80;75.70
18694;DHT22;9477;51.414;10.362;2023-04-24T05:45:59;15.80;76.00
18694;DHT22;9477;51.414;10.362;2023-04-24T05:48:02;15.90;76.20
18694;DHT22;9477;51.414;10.362;2023-04-24T05:50:06;15.90;76.10
18694;DHT22;9477;51.414;10.362;2023-04-24T05:52:10;16.00;76.30
18694;DHT22;9477;51.414;10.362;2023-04-24T05:54:13;15.90;76.00
18694;DHT22;9477;51.414;10.362;2023-04-24T05:56:16;16.00;76.30
18694;DHT22;9477;51.414;10.362;2023-04-24T05:58:19;16.10;76.20
18694;DHT22;9477;51.414;10.362;2023-04-24T06:00:23;16.10;75.80
18694;DHT22;9477;51.414;10.362;2023-04-24T06:02:28;16.20;75.80
18694;DHT22;9477;51.414;10.362;2023-04-24T06:04:34;16.10;75.30
18694;DHT22;9477;51.414;10.362;2023-04-24T06:06:38;16.10;75.40
18694;DHT22;9477;51.414;10.362;2023-04-24T06:08:48;16.10;75.40
18694;DHT22;9477;51.414;10.362;2023-04-24T06:11:04;16.10;75.60
18694;DHT22;9477;51.414;10.362;2023-04-24T06:13:08;16.00;75.30
18694;DHT22;9477;51.414;10.362;2023-04-24T06:15:13;16.00;75.30
18694;DHT22;9477;51.414;10.362;2023-04-24T06:17:24;16.00;75.20
18694;DHT22;9477;51.414;10.362;2023-04-24T06:19:33;15.80;73.90
18694;DHT22;9477;51.414;10.362;2023-04-24T06:21:37;15.60;73.30
18694;DHT22;9477;51.414;10.362;2023-04-24T06:23:40;15.50;73.70
18694;DHT22;9477;51.414;10.362;2023-04-24T06:25:45;15.10;72.80
18694;DHT22;9477;51.414;10.362;2023-04-24T06:27:54;15.30;74.10
18694;DHT22;9477;51.414;10.362;2023-04-24T06:29:58;15.40;74.10
18694;DHT22;9477;51.414;10.362;2023-04-24T06:32:06;15.40;73.70
18694;DHT22;9477;51.414;10.362;2023-04-24T06:34:13;15.40;72.70
18694;DHT22;9477;51.414;10.362;2023-04-24T06:36:28;15.50;73.20
18694;DHT22;9477;51.414;10.362;2023-04-24T06:39:11;15.50;74.10
18694;DHT22;9477;51.414;10.362;2023-04-24T06:41:19;15.90;73.60
18694;DHT22;9477;51.414;10.362;2023-04-24T06:43:22;16.20;73.10
18694;DHT22;9477;51.414;10.362;2023-04-24T06:45:25;16.40;72.50
18694;DHT22;9477;51.414;10.362;2023-04-24T06:47:29;16.40;71.90
18694;DHT22;9477;51.414;10.362;2023-04-24T06:53:04;16.40;70.80
18694;DHT22;9477;51.414;10.362;2023-04-24T06:55:25;16.50;70.80
18694;DHT22;9477;51.414;10.362;2023-04-24T06:57:28;16.50;70.30
18694;DHT22;9477;51.414;10.362;2023-04-24T06:59:31;16.50;69.90
18694;DHT22;9477;51.414;10.362;2023-04-24T07:01:35;16.70;70.70
18694;DHT22;9477;51.414;10.362;2023-04-24T07:03:38;16.90;70.40
18694;DHT22;9477;51.414;10.362;2023-04-24T07:05:41;17.10;69.90
18694;DHT22;9477;51.414;10.362;2023-04-24T07:07:45;17.10;68.50
18694;DHT22;9477;51.414;10.362;2023-04-24T07:09:49;17.20;68.80
18694;DHT22;9477;51.414;10.362;2023-04-24T07:11:52;17.30;68.20
18694;DHT22;9477;51.414;10.362;2023-04-24T07:13:56;17.40;67.80
18694;DHT22;9477;51.414;10.362;2023-04-24T07:15:58;17.50;67.50
18694;DHT22;9477;51.414;10.362;2023-04-24T07:18:02;17.60;66.90
18694;DHT22;9477;51.414;10.362;2023-04-24T07:20:07;17.70;66.00
18694;DHT22;9477;51.414;10.362;2023-04-24T07:22:11;17.90;65.60
18694;DHT22;9477;51.414;10.362;2023-04-24T07:24:20;17.80;64.70
18694;DHT22;9477;51.414;10.362;2023-04-24T07:26:25;17.30;62.30
18694;DHT22;9477;51.414;10.362;2023-04-24T07:28:28;16.70;61.10
18694;DHT22;9477;51.414;10.362;2023-04-24T07:30:36;16.60;62.50
18694;DHT22;9477;51.414;10.362;2023-04-24T07:32:38;16.70;63.80
18694;DHT22;9477;51.414;10.362;2023-04-24T07:34:41;16.90;63.30
18694;DHT22;9477;51.414;10.362;2023-04-24T07:36:44;16.90;61.70
18694;DHT22;9477;51.414;10.362;2023-04-24T07:38:48;17.10;61.60
18694;DHT22;9477;51.414;10.362;2023-04-24T07:40:53;17.30;61.50
18694;DHT22;9477;51.414;10.362;2023-04-24T07:42:55;17.60;61.70
18694;DHT22;9477;51.414;10.362;2023-04-24T07:44:58;17.70;61.10
18694;DHT22;9477;51.414;10.362;2023-04-24T07:47:04;17.80;59.30
18694;DHT22;9477;51.414;10.362;2023-04-24T07:49:07;17.90;60.20
18694;DHT22;9477;51.414;10.362;2023-04-24T07:51:15;18.00;59.60
18694;DHT22;9477;51.414;10.362;2023-04-24T07:53:18;18.20;59.50
18694;DHT22;9477;51.414;10.362;2023-04-24T07:55:23;18.30;59.40
18694;DHT22;9477;51.414;10.362;2023-04-24T07:57:30;18.30;58.60
18694;DHT22;9477;51.414;10.362;2023-04-24T07:59:33;18.50;58.90
18694;DHT22;9477;51.414;10.362;2023-04-24T08:01:36;18.50;57.80
18694;DHT22;9477;51.414;10.362;2023-04-24T08:03:39;18.60;57.90
18694;DHT22;9477;51.414;10.362;2023-04-24T08:05:42;18.60;57.60
18694;DHT22;9477;51.414;10.362;2023-04-24T08:07:45;18.60;57.60
18694;DHT22;9477;51.414;10.362;2023-04-24T08:09:50;18.60;57.50
18694;DHT22;9477;51.414;10.362;2023-04-24T08:11:53;18.60;57.50
18694;DHT22;9477;51.414;10.362;2023-04-24T08:13:58;18.70;57.10
18694;DHT22;9477;51.414;10.362;2023-04-24T08:16:01;19.00;58.00
18694;DHT22;9477;51.414;10.362;2023-04-24T08:18:04;18.90;56.90
18694;DHT22;9477;51.414;10.362;2023-04-24T08:20:10;18.80;56.30
18694;DHT22;9477;51.414;10.362;2023-04-24T08:22:15;18.00;55.10
18694;DHT22;9477;51.414;10.362;2023-04-24T08:24:18;18.10;57.20
18694;DHT22;9477;51.414;10.362;2023-04-24T08:26:21;17.90;57.10
18694;DHT22;9477;51.414;10.362;2023-04-24T08:28:25;17.70;56.30
18694;DHT22;9477;51.414;10.362;2023-04-24T08:30:30;17.10;55.50
18694;DHT22;9477;51.414;10.362;2023-04-24T08:32:33;17.10;56.60
18694;DHT22;9477;51.414;10.362;2023-04-24T08:34:36;17.20;57.00
18694;DHT22;9477;51.414;10.362;2023-04-24T08:36:39;17.10;56.50
18694;DHT22;9477;51.414;10.362;2023-04-24T08:38:48;17.50;57.20
18694;DHT22;9477;51.414;10.362;2023-04-24T08:40:51;17.60;56.70
18694;DHT22;9477;51.414;10.362;2023-04-24T08:42:54;18.00;56.80
18694;DHT22;9477;51.414;10.362;2023-04-24T08:44:57;17.40;55.60
18694;DHT22;9477;51.414;10.362;2023-04-24T08:47:03;17.60;57.40
18694;DHT22;9477;51.414;10.362;2023-04-24T08:49:06;17.60;56.10
18694;DHT22;9477;51.414;10.362;2023-04-24T08:51:09;17.80;56.80
18694;DHT22;9477;51.414;10.362;2023-04-24T08:53:12;17.80;56.40
18694;DHT22;9477;51.414;10.362;2023-04-24T08:55:15;17.40;55.70
18694;DHT22;9477;51.414;10.362;2023-04-24T08:57:19;17.30;56.50
18694;DHT22;9477;51.414;10.362;2023-04-24T08:59:22;17.40;56.60
18694;DHT22;9477;51.414;10.362;2023-04-24T09:01:26;17.70;56.30
18694;DHT22;9477;51.414;10.362;2023-04-24T09:03:35;17.70;55.00
18694;DHT22;9477;51.414;10.362;2023-04-24T09:05:41;17.60;54.70
18694;DHT22;9477;51.414;10.362;2023-04-24T09:07:53;17.50;54.40
18694;DHT22;9477;51.414;10.362;2023-04-24T09:09:56;17.30;53.60
18694;DHT22;9477;51.414;10.362;2023-04-24T09:12:00;17.30;54.70
18694;DHT22;9477;51.414;10.362;2023-04-24T09:14:03;17.70;55.30
18694;DHT22;9477;51.414;10.362;2023-04-24T09:16:06;17.90;55.10
18694;DHT22;9477;51.414;10.362;2023-04-24T09:18:09;17.90;54.80
18694;DHT22;9477;51.414;10.362;2023-04-24T09:20:14;17.90;55.10
18694;DHT22;9477;51.414;10.362;2023-04-24T09:22:17;17.80;55.00
18694;DHT22;9477;51.414;10.362;2023-04-24T09:24:21;18.20;55.90
18694;DHT22;9477;51.414;10.362;2023-04-24T09:26:25;18.30;55.60
18694;DHT22;9477;51.414;10.362;2023-04-24T09:28:31;18.30;55.00
18694;DHT22;9477;51.414;10.362;2023-04-24T09:30:34;18.30;55.50
18694;DHT22;9477;51.414;10.362;2023-04-24T09:32:37;18.50;56.00
18694;DHT22;9477;51.414;10.362;2023-04-24T09:34:40;18.80;55.60
18694;DHT22;9477;51.414;10.362;2023-04-24T09:36:46;19.00;55.10
18694;DHT22;9477;51.414;10.362;2023-04-24T09:38:55;18.60;52.90
18694;DHT22;9477;51.414;10.362;2023-04-24T09:41:01;17.80;52.00
18694;DHT22;9477;51.414;10.362;2023-04-24T09:43:10;18.00;54.50
18694;DHT22;9477;51.414;10.362;2023-04-24T09:45:14;18.20;55.10
18694;DHT22;9477;51.414;10.362;2023-04-24T09:47:17;18.60;54.50
18694;DHT22;9477;51.414;10.362;2023-04-24T09:49:22;18.90;54.20
18694;DHT22;9477;51.414;10.362;2023-04-24T09:51:34;18.80;53.10
18694;DHT22;9477;51.414;10.362;2023-04-24T09:53:44;18.90;52.80
18694;DHT22;9477;51.414;10.362;2023-04-24T09:55:47;18.60;52.30
18694;DHT22;9477;51.414;10.362;2023-04-24T09:57:53;18.10;51.90
18694;DHT22;9477;51.414;10.362;2023-04-24T09:59:58;18.20;53.20
18694;DHT22;9477;51.414;10.362;2023-04-24T10:02:01;18.60;53.70
18694;DHT22;9477;51.414;10.362;2023-04-24T10:04:15;18.50;53.20
18694;DHT22;9477;51.414;10.362;2023-04-24T10:06:19;17.80;52.80
18694;DHT22;9477;51.414;10.362;2023-04-24T10:08:21;17.90;53.60
18694;DHT22;9477;51.414;10.362;2023-04-24T10:10:26;18.10;54.40
18694;DHT22;9477;51.414;10.362;2023-04-24T10:12:29;18.30;54.70
18694;DHT22;9477;51.414;10.362;2023-04-24T10:14:33;18.30;54.40
18694;DHT22;9477;51.414;10.362;2023-04-24T10:16:36;18.30;54.20
18694;DHT22;9477;51.414;10.362;2023-04-24T10:18:39;18.30;54.60
18694;DHT22;9477;51.414;10.362;2023-04-24T10:20:42;18.40;54.50
18694;DHT22;9477;51.414;10.362;2023-04-24T10:22:46;18.40;54.70
18694;DHT22;9477;51.414;10.362;2023-04-24T10:24:52;18.30;54.40
18694;DHT22;9477;51.414;10.362;2023-04-24T10:26:57;18.40;54.90
18694;DHT22;9477;51.414;10.362;2023-04-24T10:29:01;18.50;54.90
18694;DHT22;9477;51.414;10.362;2023-04-24T10:31:04;18.60;55.10
18694;DHT22;9477;51.414;10.362;2023-04-24T10:33:08;18.80;55.00
18694;DHT22;9477;51.414;10.362;2023-04-24T10:35:13;18.90;54.80
18694;DHT22;9477;51.414;10.362;2023-04-24T10:37:16;19.00;54.90
18694;DHT22;9477;51.414;10.362;2023-04-24T10:39:19;19.10;54.70
18694;DHT22;9477;51.414;10.362;2023-04-24T10:41:30;19.10;54.50
18694;DHT22;9477;51.414;10.362;2023-04-24T10:43:35;19.00;54.30
18694;DHT22;9477;51.414;10.362;2023-04-24T10:45:39;18.90;54.30
18694;DHT22;9477;51.414;10.362;2023-04-24T10:47:52;18.70;54.30
18694;DHT22;9477;51.414;10.362;2023-04-24T10:49:58;18.50;54.40
18694;DHT22;9477;51.414;10.362;2023-04-24T10:52:03;18.40;55.00
18694;DHT22;9477;51.414;10.362;2023-04-24T10:54:22;18.20;55.00
18694;DHT22;9477;51.414;10.362;2023-04-24T10:56:26;18.20;55.30
18694;DHT22;9477;51.414;10.362;2023-04-24T10:58:39;18.30;55.50
18694;DHT22;9477;51.414;10.362;2023-04-24T11:00:43;18.60;55.80
18694;DHT22;9477;51.414;10.362;2023-04-24T11:02:48;18.50;54.70
18694;DHT22;9477;51.414;10.362;2023-04-24T11:04:52;18.60;54.60
18694;DHT22;9477;51.414;10.362;2023-04-24T11:06:55;18.80;55.00
18694;DHT22;9477;51.414;10.362;2023-04-24T11:09:02;19.10;55.00
18694;DHT22;9477;51.414;10.362;2023-04-24T11:11:11;19.20;54.60
18694;DHT22;9477;51.414;10.362;2023-04-24T11:13:21;19.60;55.00
18694;DHT22;9477;51.414;10.362;2023-04-24T11:15:26;19.60;54.30
18694;DHT22;9477;51.414;10.362;2023-04-24T11:17:32;19.60;53.80
18694;DHT22;9477;51.414;10.362;2023-04-24T11:19:35;19.60;53.40
18694;DHT22;9477;51.414;10.362;2023-04-24T11:21:40;19.70;53.50
18694;DHT22;9477;51.414;10.362;2023-04-24T11:23:44;19.90;54.00
18694;DHT22;9477;51.414;10.362;2023-04-24T11:26:10;20.00;54.10
18694;DHT22;9477;51.414;10.362;2023-04-24T11:28:14;20.50;54.00
18694;DHT22;9477;51.414;10.362;2023-04-24T11:30:19;20.50;53.60
18694;DHT22;9477;51.414;10.362;2023-04-24T11:32:28;20.40;53.20
18694;DHT22;9477;51.414;10.362;2023-04-24T11:34:32;20.30;53.10
18694;DHT22;9477;51.414;10.362;2023-04-24T11:36:38;20.10;52.60
18694;DHT22;9477;51.414;10.362;2023-04-24T11:38:43;20.10;52.70
18694;DHT22;9477;51.414;10.362;2023-04-24T11:40:46;20.20;53.10
18694;DHT22;9477;51.414;10.362;2023-04-24T11:42:52;20.30;53.50
18694;DHT22;9477;51.414;10.362;2023-04-24T11:44:57;20.10;52.70
18694;DHT22;9477;51.414;10.362;2023-04-24T11:47:02;19.70;51.80
18694;DHT22;9477;51.414;10.362;2023-04-24T11:49:06;19.70;52.70
18694;DHT22;9477;51.414;10.362;2023-04-24T11:51:09;19.70;53.20
18694;DHT22;9477;51.414;10.362;2023-04-24T11:53:12;19.40;52.90
18694;DHT22;9477;51.414;10.362;2023-04-24T11:55:27;19.10;53.20
18694;DHT22;9477;51.414;10.362;2023-04-24T11:57:30;18.80;53.50
18694;DHT22;9477;51.414;10.362;2023-04-24T11:59:36;18.30;54.30
18694;DHT22;9477;51.414;10.362;2023-04-24T12:01:43;18.10;56.00
18694;DHT22;9477;51.414;10.362;2023-04-24T12:03:49;17.40;59.10
18694;DHT22;9477;51.414;10.362;2023-04-24T12:06:05;17.50;60.70
18694;DHT22;9477;51.414;10.362;2023-04-24T12:08:10;17.60;62.30
18694;DHT22;9477;51.414;10.362;2023-04-24T12:10:13;18.10;62.60
18694;DHT22;9477;51.414;10.362;2023-04-24T12:12:17;18.40;61.90
18694;DHT22;9477;51.414;10.362;2023-04-24T12:14:20;18.20;61.40
18694;DHT22;9477;51.414;10.362;2023-04-24T12:16:24;18.20;61.20
18694;DHT22;9477;51.414;10.362;2023-04-24T12:18:28;17.70;61.60
18694;DHT22;9477;51.414;10.362;2023-04-24T12:20:32;17.60;61.00
18694;DHT22;9477;51.414;10.362;2023-04-24T12:22:46;17.60;62.00
18694;DHT22;9477;51.414;10.362;2023-04-24T12:24:59;16.90;62.60
18694;DHT22;9477;51.414;10.362;2023-04-24T12:27:03;16.50;63.20
18694;DHT22;9477;51.414;10.362;2023-04-24T12:29:05;16.50;64.30
18694;DHT22;9477;51.414;10.362;2023-04-24T12:31:09;16.60;64.60
18694;DHT22;9477;51.414;10.362;2023-04-24T12:33:48;16.90;64.80
18694;DHT22;9477;51.414;10.362;2023-04-24T12:36:29;17.40;64.80
18694;DHT22;9477;51.414;10.362;2023-04-24T12:38:35;17.40;62.60
18694;DHT22;9477;51.414;10.362;2023-04-24T12:40:43;17.50;62.10
18694;DHT22;9477;51.414;10.362;2023-04-24T12:42:47;17.70;62.50
18694;DHT22;9477;51.414;10.362;2023-04-24T12:44:56;17.90;61.60
18694;DHT22;9477;51.414;10.362;2023-04-24T12:46:59;17.90;61.50
18694;DHT22;9477;51.414;10.362;2023-04-24T12:49:02;17.50;62.10
18694;DHT22;9477;51.414;10.362;2023-04-24T12:51:05;16.90;62.00
18694;DHT22;9477;51.414;10.362;2023-04-24T12:53:08;16.50;62.30
18694;DHT22;9477;51.414;10.362;2023-04-24T12:55:13;16.60;62.80
18694;DHT22;9477;51.414;10.362;2023-04-24T12:57:16;16.80;62.60
18694;DHT22;9477;51.414;10.362;2023-04-24T12:59:21;16.70;62.10
18694;DHT22;9477;51.414;10.362;2023-04-24T13:01:26;17.10;61.40
18694;DHT22;9477;51.414;10.362;2023-04-24T13:03:29;17.30;61.00
18694;DHT22;9477;51.414;10.362;2023-04-24T13:05:32;17.00;59.90
18694;DHT22;9477;51.414;10.362;2023-04-24T13:07:35;16.80;60.30
18694;DHT22;9477;51.414;10.362;2023-04-24T13:09:38;16.50;60.30